Time;durP1;ratioP1;P1;durP2;ratioP2;P2;SDS_P1;SDS_P2;PMS_P1;PMS_P2;Temp;Humidity;BMP_temperature;BMP_pressure;BME280_temperature;BME280_humidity;BME280_pressure;Samples;Min_cycle;Max_cycle;Signal;HPM_P1;HPM_P2
2021/08/24 00:00:11;;;;;;;49.30;46.30;;;;;;;19.43;100.00;101025.88;4989154;28;20061;-77
2021/08/24 00:02:38;;;;;;;56.45;52.95;;;;;;;19.67;100.00;101026.38;4981201;28;20050;-78
2021/08/24 00:05:06;;;;;;;48.35;45.22;;;;;;;19.87;100.00;101027.56;4987016;28;20055;-76
2021/08/24 00:07:32;;;;;;;42.97;39.85;;;;;;;19.82;100.00;101031.06;4989966;28;20061;-79
2021/08/24 00:09:59;;;;;;;42.38;39.53;;;;;;;19.79;100.00;101025.34;4989944;28;20042;-79
2021/08/24 00:12:26;;;;;;;41.67;38.70;;;;;;;19.88;100.00;101030.00;4986107;28;20075;-79
2021/08/24 00:14:54;;;;;;;37.55;34.95;;;;;;;19.50;100.00;101022.97;4990826;28;20054;-79
2021/08/24 00:17:21;;;;;;;39.03;36.22;;;;;;;19.64;100.00;101032.28;4986163;28;20051;-77
2021/08/24 00:19:47;;;;;;;41.22;38.42;;;;;;;19.78;100.00;101023.72;4993519;28;20059;-77
2021/08/24 00:22:14;;;;;;;49.25;46.22;;;;;;;20.00;100.00;101020.91;4994273;28;20058;-77
2021/08/24 00:24:41;;;;;;;36.63;34.08;;;;;;;20.16;100.00;101028.00;4990207;28;20050;-78
2021/08/24 00:27:08;;;;;;;35.15;32.55;;;;;;;19.98;100.00;101025.75;4994092;28;20526;-77
2021/08/24 00:29:35;;;;;;;35.35;32.78;;;;;;;20.02;100.00;101016.88;4990923;28;20577;-79
2021/08/24 00:32:03;;;;;;;42.30;39.35;;;;;;;20.13;100.00;101028.53;4994542;28;20368;-79
2021/08/24 00:34:30;;;;;;;42.63;39.53;;;;;;;19.32;100.00;101018.00;4994482;28;20505;-79
2021/08/24 00:36:57;;;;;;;40.95;37.95;;;;;;;18.81;100.00;101012.13;4991072;28;20050;-79
2021/08/24 00:39:24;;;;;;;40.45;37.53;;;;;;;18.99;100.00;101020.66;4988094;28;20055;-80
2021/08/24 00:41:50;;;;;;;41.40;38.20;;;;;;;18.91;100.00;101014.91;4991776;28;20061;-77
2021/08/24 00:44:17;;;;;;;38.65;35.65;;;;;;;18.85;100.00;101026.69;4990704;28;20061;-78
2021/08/24 00:46:48;;;;;;;41.35;38.25;;;;;;;18.73;100.00;101021.47;4990659;28;20129;-77
2021/08/24 00:49:18;;;;;;;40.53;37.35;;;;;;;18.75;100.00;101024.72;4994728;28;20491;-79
2021/08/24 00:51:48;;;;;;;45.97;42.47;;;;;;;18.66;100.00;101024.31;4993235;28;20403;-76
2021/08/24 00:54:18;;;;;;;39.97;36.85;;;;;;;18.68;100.00;101019.50;4992651;28;20144;-79
2021/08/24 00:56:48;;;;;;;42.72;39.72;;;;;;;18.75;100.00;101024.72;4989013;28;20494;-79
2021/08/24 00:59:16;;;;;;;45.05;41.75;;;;;;;18.55;100.00;101017.22;4991194;28;20112;-78
2021/08/24 01:01:43;;;;;;;45.95;42.85;;;;;;;18.52;100.00;101012.34;4985909;28;20050;-79
2021/08/24 01:04:09;;;;;;;47.17;43.67;;;;;;;18.18;100.00;101027.75;4995072;28;20050;-79
2021/08/24 01:06:45;;;;;;;46.67;43.20;;;;;;;18.25;100.00;101026.53;4986798;28;20054;-79
2021/08/24 01:09:29;;;;;;;45.33;42.03;;;;;;;18.25;100.00;101023.84;4989240;28;20055;-79
2021/08/24 01:12:06;;;;;;;46.03;42.80;;;;;;;18.32;100.00;101023.66;4991806;28;20113;-79
2021/08/24 01:14:41;;;;;;;51.88;48.17;;;;;;;18.12;100.00;101034.94;4990858;28;20061;-79
2021/08/24 01:17:13;;;;;;;48.03;43.92;;;;;;;18.25;100.00;101031.91;4992078;28;20407;-79
2021/08/24 01:20:24;;;;;;;51.35;47.45;;;;;;;18.27;100.00;101035.13;4993558;28;20054;-79
2021/08/24 01:23:31;;;;;;;48.30;44.58;;;;;;;18.31;100.00;101032.78;4965465;28;20054;-77
2021/08/24 01:26:03;;;;;;;48.58;44.90;;;;;;;18.19;100.00;101034.78;4991358;28;20186;-80
2021/08/24 01:28:39;;;;;;;46.70;42.95;;;;;;;18.23;100.00;101031.31;4989610;28;20050;-79
2021/08/24 01:31:59;;;;;;;50.25;46.65;;;;;;;18.41;100.00;101034.78;4988884;28;20051;-80
2021/08/24 01:34:46;;;;;;;43.10;39.70;;;;;;;18.41;100.00;101032.09;4976297;28;20058;-77
2021/08/24 01:37:20;;;;;;;49.17;45.30;;;;;;;17.94;100.00;101030.66;4985630;28;20046;-77
2021/08/24 01:39:52;;;;;;;47.22;43.65;;;;;;;17.98;100.00;101026.44;4987587;28;20054;-77
2021/08/24 01:42:22;;;;;;;53.83;49.72;;;;;;;17.75;100.00;101027.41;4992121;28;20054;-77
2021/08/24 01:45:00;;;;;;;49.63;46.03;;;;;;;17.68;100.00;101025.97;4984096;28;20043;-79
2021/08/24 01:47:43;;;;;;;46.47;42.97;;;;;;;17.78;100.00;101037.69;4994141;28;20054;-78
2021/08/24 01:50:13;;;;;;;44.88;41.38;;;;;;;17.34;100.00;101028.66;4989626;28;20050;-77
2021/08/24 01:52:45;;;;;;;53.20;48.88;;;;;;;17.34;100.00;101026.78;4993523;28;20050;-79
2021/08/24 01:55:17;;;;;;;48.08;44.33;;;;;;;17.46;100.00;101025.84;4988780;28;20050;-77
2021/08/24 01:57:49;;;;;;;43.63;40.20;;;;;;;17.45;100.00;101024.25;4988304;28;20372;-76
2021/08/24 02:02:57;;;;;;;47.95;44.40;;;;;;;17.38;100.00;101017.16;5021214;23;20049;-79
2021/08/24 02:05:28;;;;;;;42.40;39.10;;;;;;;17.23;100.00;101018.78;5024478;28;20050;-79
2021/08/24 02:08:01;;;;;;;46.40;42.90;;;;;;;17.16;100.00;101017.06;5021805;28;20057;-79
2021/08/24 02:10:27;;;;;;;46.50;42.85;;;;;;;16.87;100.00;101010.09;5027299;28;20053;-80
2021/08/24 02:12:56;;;;;;;49.20;45.50;;;;;;;16.66;100.00;101004.31;5028751;28;20042;-80
2021/08/24 02:15:30;;;;;;;50.17;46.40;;;;;;;16.60;100.00;101010.63;5029848;28;20053;-79
2021/08/24 02:17:59;;;;;;;56.08;51.83;;;;;;;16.90;100.00;101005.06;5028938;28;20045;-77
2021/08/24 02:20:28;;;;;;;51.35;47.55;;;;;;;16.88;100.00;100999.16;5025505;28;20112;-78
2021/08/24 02:23:01;;;;;;;55.13;51.20;;;;;;;16.79;100.00;100999.75;5027924;28;20119;-77
2021/08/24 02:25:32;;;;;;;51.17;47.28;;;;;;;16.55;100.00;101002.53;5028825;28;20049;-78
2021/08/24 02:28:03;;;;;;;49.50;45.78;;;;;;;16.34;100.00;101000.47;5020732;28;20076;-77
2021/08/24 02:30:33;;;;;;;50.13;46.05;;;;;;;16.19;100.00;100998.31;5027790;28;20171;-79
2021/08/24 02:33:00;;;;;;;50.50;46.58;;;;;;;16.43;100.00;101001.72;5027899;28;20523;-78
2021/08/24 02:35:35;;;;;;;56.70;52.42;;;;;;;16.64;100.00;100990.34;5025435;28;20050;-77
2021/08/24 02:38:08;;;;;;;59.30;55.13;;;;;;;16.44;100.00;100989.97;5021454;28;20049;-79
2021/08/24 02:40:42;;;;;;;50.53;46.72;;;;;;;16.58;100.00;100987.78;5024487;28;20486;-78
2021/08/24 02:43:19;;;;;;;57.78;53.30;;;;;;;16.13;100.00;100985.84;5025898;28;20049;-78
2021/08/24 02:45:52;;;;;;;63.78;59.47;;;;;;;16.12;100.00;100985.00;5027251;28;20042;-80
2021/08/24 02:48:20;;;;;;;70.20;65.65;;;;;;;16.22;100.00;100987.09;5022036;28;20482;-77
2021/08/24 02:50:49;;;;;;;53.58;49.72;;;;;;;16.32;100.00;100990.00;5026456;28;20103;-80
2021/08/24 02:53:17;;;;;;;53.85;49.53;;;;;;;16.41;100.00;100988.56;5029125;28;20122;-79
2021/08/24 02:55:44;;;;;;;49.58;45.60;;;;;;;16.23;100.00;100992.22;5021206;28;20403;-79
2021/08/24 02:58:11;;;;;;;49.88;46.08;;;;;;;15.93;100.00;100995.06;5029143;28;20050;-79
2021/08/24 03:00:37;;;;;;;51.53;47.53;;;;;;;15.85;100.00;100990.06;5024438;28;20127;-80
2021/08/24 03:03:04;;;;;;;53.65;49.67;;;;;;;15.80;100.00;100995.31;5029996;28;20084;-79
2021/08/24 03:05:31;;;;;;;48.70;44.80;;;;;;;16.15;100.00;100992.56;5023040;28;20103;-79
2021/08/24 03:07:58;;;;;;;51.72;47.90;;;;;;;16.17;100.00;100992.34;5013584;28;20564;-81
2021/08/24 03:10:29;;;;;;;49.88;45.92;;;;;;;16.34;100.00;100995.94;5007497;28;20046;-77
2021/08/24 03:13:12;;;;;;;47.83;44.20;;;;;;;16.19;100.00;101003.66;5007042;28;20050;-78
2021/08/24 03:15:44;;;;;;;45.55;41.90;;;;;;;16.16;100.00;101010.31;5008982;28;20049;-79
2021/08/24 03:18:14;;;;;;;50.00;46.20;;;;;;;16.16;100.00;101004.94;5010453;28;20112;-79
2021/08/24 03:20:44;;;;;;;46.67;43.13;;;;;;;16.09;100.00;101006.91;5008980;28;20473;-77
2021/08/24 03:23:13;;;;;;;51.60;47.42;;;;;;;15.96;100.00;101004.50;5006158;28;20049;-77
2021/08/24 03:25:44;;;;;;;51.60;47.70;;;;;;;15.60;100.00;101008.19;5002144;28;20474;-79
2021/08/24 03:28:15;;;;;;;50.13;46.28;;;;;;;15.62;100.00;101014.16;5008077;28;20314;-76
2021/08/24 03:30:43;;;;;;;49.17;45.45;;;;;;;15.63;100.00;101013.09;5003149;28;20053;-78
2021/08/24 03:33:12;;;;;;;43.70;39.80;;;;;;;15.56;100.00;101016.69;5004911;28;20049;-77
2021/08/24 03:35:39;;;;;;;51.33;47.17;;;;;;;15.55;100.00;101016.91;5007404;28;20442;-77
2021/08/24 03:38:06;;;;;;;56.28;51.92;;;;;;;15.47;100.00;101014.59;5002455;28;20084;-78
2021/08/24 03:40:33;;;;;;;49.28;45.53;;;;;;;15.82;100.00;101016.50;5005149;28;20109;-77
2021/08/24 03:43:02;;;;;;;51.40;47.80;;;;;;;15.75;100.00;101019.28;5005934;28;20104;-79
2021/08/24 03:45:29;;;;;;;58.55;54.35;;;;;;;15.76;100.00;101028.94;5008101;28;20124;-79
2021/08/24 03:47:55;;;;;;;57.80;53.53;;;;;;;15.66;100.00;101024.16;5007917;28;20049;-78
2021/08/24 03:50:22;;;;;;;51.90;48.17;;;;;;;15.71;100.00;101029.66;5007647;28;20054;-79
2021/08/24 03:52:50;;;;;;;51.85;48.15;;;;;;;15.86;100.00;101021.16;5005817;28;20045;-79
2021/08/24 03:55:17;;;;;;;54.22;50.40;;;;;;;15.85;100.00;101024.06;5001628;28;20137;-78
2021/08/24 03:57:44;;;;;;;49.28;45.70;;;;;;;15.97;100.00;101020.31;5007793;28;20058;-79
2021/08/24 04:00:14;;;;;;;52.60;48.58;;;;;;;15.83;100.00;101026.97;5002291;28;20057;-78
2021/08/24 04:02:41;;;;;;;48.22;44.65;;;;;;;16.14;100.00;101028.47;5002985;28;20112;-77
2021/08/24 04:05:08;;;;;;;45.67;42.28;;;;;;;15.99;100.00;101028.13;5009677;28;20057;-78
2021/08/24 04:07:35;;;;;;;52.28;48.35;;;;;;;16.19;100.00;101033.13;5009855;28;20112;-79
2021/08/24 04:10:02;;;;;;;50.40;46.60;;;;;;;16.11;100.00;101030.81;5012046;28;20449;-79
2021/08/24 04:12:28;;;;;;;45.88;42.33;;;;;;;16.33;100.00;101025.63;5011122;28;20123;-78
2021/08/24 04:14:56;;;;;;;45.92;42.00;;;;;;;16.22;100.00;101033.47;5011713;28;20120;-77
2021/08/24 04:17:25;;;;;;;47.80;44.40;;;;;;;16.51;100.00;101028.16;5008842;28;20535;-77
2021/08/24 04:19:51;;;;;;;57.15;52.88;;;;;;;16.45;100.00;101037.97;5010525;28;20394;-78
2021/08/24 04:22:21;;;;;;;60.72;56.63;;;;;;;16.55;100.00;101039.22;5012508;28;20543;-78
2021/08/24 04:24:48;;;;;;;55.10;51.40;;;;;;;16.49;100.00;101039.13;5007145;28;20564;-77
2021/08/24 04:27:15;;;;;;;47.00;43.03;;;;;;;16.48;100.00;101047.41;5008758;28;20062;-77
2021/08/24 04:29:41;;;;;;;46.20;42.85;;;;;;;16.40;100.00;101048.59;5001624;28;20395;-77
2021/08/24 04:32:10;;;;;;;48.47;44.97;;;;;;;16.75;100.00;101039.63;5015049;28;20058;-78
2021/08/24 04:34:38;;;;;;;47.90;44.33;;;;;;;17.06;100.00;101042.91;5004288;28;20471;-77
2021/08/24 04:37:05;;;;;;;47.03;43.67;;;;;;;17.15;100.00;101042.25;5001278;28;20046;-78
2021/08/24 04:39:32;;;;;;;49.47;45.97;;;;;;;17.36;100.00;101042.63;5012602;28;20045;-77
2021/08/24 04:41:59;;;;;;;46.45;42.67;;;;;;;17.42;100.00;101044.34;5006656;28;20108;-77
2021/08/24 04:44:25;;;;;;;44.65;41.47;;;;;;;17.56;100.00;101048.34;5007214;28;20060;-77
2021/08/24 04:46:52;;;;;;;42.63;39.47;;;;;;;17.67;100.00;101048.47;5008922;28;20131;-77
2021/08/24 04:49:21;;;;;;;46.28;42.95;;;;;;;17.66;100.00;101053.03;5011006;28;20537;-79
2021/08/24 04:51:49;;;;;;;46.08;42.72;;;;;;;22.18;100.00;101046.66;5006420;28;20513;-76
2021/08/24 04:54:16;;;;;;;33.38;30.67;;;;;;;20.37;100.00;101037.00;5007809;28;20628;-78
2021/08/24 04:56:42;;;;;;;36.08;33.38;;;;;;;18.53;100.00;101046.22;5006206;28;20495;-77
2021/08/24 04:59:09;;;;;;;39.53;36.42;;;;;;;18.34;100.00;101043.03;5009806;28;20466;-79
2021/08/24 05:01:37;;;;;;;42.13;39.13;;;;;;;18.51;100.00;101038.38;5011077;28;20053;-77
2021/08/24 05:04:04;;;;;;;43.78;40.47;;;;;;;18.67;100.00;101043.94;5009697;28;20053;-77
2021/08/24 05:06:31;;;;;;;43.50;40.30;;;;;;;18.79;100.00;101041.16;5008589;28;20111;-79
2021/08/24 05:08:59;;;;;;;46.28;42.97;;;;;;;18.92;100.00;101041.56;5006588;28;20042;-77
2021/08/24 05:11:26;;;;;;;46.90;43.53;;;;;;;19.30;100.00;101047.84;4997631;28;20051;-77
2021/08/24 05:13:52;;;;;;;39.88;36.88;;;;;;;19.52;100.00;101041.59;5004380;28;20046;-78
2021/08/24 05:16:19;;;;;;;42.17;38.78;;;;;;;19.60;100.00;101049.19;5005706;28;20442;-77
2021/08/24 05:18:46;;;;;;;43.20;40.17;;;;;;;19.80;100.00;101046.66;5007365;28;20050;-80
2021/08/24 05:21:14;;;;;;;41.40;38.03;;;;;;;20.07;100.00;101041.16;5004083;28;20104;-79
2021/08/24 05:23:41;;;;;;;39.22;36.40;;;;;;;20.24;100.00;101043.69;5002835;28;20068;-77
2021/08/24 05:26:11;;;;;;;41.90;38.92;;;;;;;20.19;100.00;101043.66;5004684;28;20046;-78
2021/08/24 05:28:49;;;;;;;;;;;;;;;;;;;;;
2021/08/24 05:31:18;;;;;;;41.58;38.38;;;;;;;20.83;100.00;101041.78;5004852;28;20065;-77
2021/08/24 05:33:44;;;;;;;39.15;36.22;;;;;;;21.46;100.00;101043.22;5015777;28;20054;-78
2021/08/24 05:36:12;;;;;;;39.70;37.05;;;;;;;21.27;100.00;101039.38;5010423;28;20116;-79
2021/08/24 05:38:40;;;;;;;32.25;29.50;;;;;;;24.04;100.00;101036.97;5004834;28;20053;-80
2021/08/24 05:41:09;;;;;;;31.83;29.63;;;;;;;25.78;100.00;101029.84;5006644;28;20049;-80
2021/08/24 05:43:35;;;;;;;30.35;28.45;;;;;;;25.65;100.00;101027.09;5005400;28;20137;-79
2021/08/24 05:46:04;;;;;;;32.03;29.30;;;;;;;26.47;100.00;101031.75;5004633;28;20466;-78
2021/08/24 05:48:33;;;;;;;32.83;30.73;;;;;;;26.94;100.00;101040.56;4998913;28;20434;-78
2021/08/24 05:51:00;;;;;;;28.13;25.92;;;;;;;27.15;100.00;101036.25;5001931;28;20394;-78
2021/08/24 05:53:27;;;;;;;23.80;21.80;;;;;;;27.19;100.00;101036.44;5009504;28;20127;-78
2021/08/24 05:55:54;;;;;;;25.30;22.67;;;;;;;27.17;100.00;101033.22;5012509;28;20108;-80
2021/08/24 05:58:22;;;;;;;23.95;21.85;;;;;;;26.89;100.00;101037.94;5008168;28;20053;-79
2021/08/24 06:00:49;;;;;;;25.58;23.55;;;;;;;24.32;100.00;101040.72;5014362;28;20053;-78
2021/08/24 06:03:20;;;;;;;26.73;24.27;;;;;;;24.99;100.00;101039.84;5017690;28;20512;-79
2021/08/24 06:05:47;;;;;;;26.33;24.10;;;;;;;24.32;100.00;101034.47;5007732;28;20108;-78
2021/08/24 06:08:14;;;;;;;28.08;25.77;;;;;;;23.57;100.00;101041.22;5000572;28;20050;-76
2021/08/24 06:10:41;;;;;;;26.65;24.30;;;;;;;23.96;100.00;101037.59;5002451;28;20049;-78
2021/08/24 06:13:09;;;;;;;27.27;24.70;;;;;;;23.64;100.00;101038.19;4997810;28;20050;-77
2021/08/24 06:15:38;;;;;;;26.98;24.48;;;;;;;23.80;100.00;101041.56;5006997;28;20057;-78
2021/08/24 06:18:04;;;;;;;26.17;23.75;;;;;;;23.84;100.00;101039.91;5008159;28;20050;-78
2021/08/24 06:20:32;;;;;;;25.60;23.17;;;;;;;24.06;100.00;101036.69;5008003;28;20592;-78
2021/08/24 06:22:58;;;;;;;24.98;22.50;;;;;;;24.02;100.00;101031.03;5002677;28;20135;-78
2021/08/24 06:25:25;;;;;;;25.25;22.98;;;;;;;23.96;100.00;101032.19;4998696;28;20125;-78
2021/08/24 06:27:53;;;;;;;25.95;23.40;;;;;;;24.13;100.00;101037.97;5005105;28;20478;-77
2021/08/24 06:30:20;;;;;;;24.98;23.08;;;;;;;24.37;100.00;101027.09;5002600;28;20046;-80
2021/08/24 06:32:52;;;;;;;25.73;23.23;;;;;;;24.40;100.00;101031.13;4997062;28;20054;-78
2021/08/24 06:35:21;;;;;;;25.25;23.02;;;;;;;24.51;100.00;101029.94;5009383;28;20050;-77
2021/08/24 06:37:48;;;;;;;27.27;24.63;;;;;;;24.54;100.00;101029.34;5007281;28;20116;-78
2021/08/24 06:40:17;;;;;;;25.35;23.08;;;;;;;24.79;100.00;101035.53;5006153;28;20455;-78
2021/08/24 06:42:47;;;;;;;25.95;23.33;;;;;;;24.99;100.00;101034.41;5008391;28;20542;-78
2021/08/24 06:45:17;;;;;;;26.08;23.63;;;;;;;25.18;100.00;101035.25;5002560;28;20038;-78
2021/08/24 06:47:44;;;;;;;25.40;22.80;;;;;;;25.25;100.00;101032.13;5002842;28;20498;-77
2021/08/24 06:50:12;;;;;;;25.55;23.02;;;;;;;25.65;100.00;101032.53;5006249;28;20084;-78
2021/08/24 06:52:39;;;;;;;24.98;22.65;;;;;;;25.49;100.00;101037.44;5002020;28;20548;-78
2021/08/24 06:55:08;;;;;;;25.13;22.85;;;;;;;25.57;100.00;101026.69;5008609;28;20450;-78
2021/08/24 06:57:35;;;;;;;24.85;22.70;;;;;;;25.77;100.00;101035.56;4998503;28;20041;-78
2021/08/24 07:00:02;;;;;;;24.30;22.08;;;;;;;25.67;100.00;101030.34;5007649;28;20415;-78
2021/08/24 07:02:29;;;;;;;24.65;22.25;;;;;;;25.77;100.00;101030.94;5003929;28;20065;-78
2021/08/24 07:04:57;;;;;;;25.52;23.08;;;;;;;26.00;100.00;101033.81;5004170;28;20066;-78
2021/08/24 07:07:25;;;;;;;24.75;22.52;;;;;;;26.42;100.00;101037.34;5010938;28;20398;-77
2021/08/24 07:09:52;;;;;;;25.95;23.10;;;;;;;26.40;100.00;101034.91;5003585;28;20046;-78
2021/08/24 07:12:18;;;;;;;24.67;22.27;;;;;;;26.57;100.00;101036.22;5007521;28;20058;-78
2021/08/24 07:14:45;;;;;;;25.90;23.27;;;;;;;26.60;100.00;101033.69;5001339;28;20116;-78
2021/08/24 07:17:12;;;;;;;24.38;22.17;;;;;;;26.39;100.00;101035.22;5008707;28;20050;-78
2021/08/24 07:19:39;;;;;;;24.45;22.08;;;;;;;26.45;100.00;101037.53;5007471;28;20376;-78
2021/08/24 07:22:05;;;;;;;25.08;22.98;;;;;;;26.70;100.00;101038.91;5004081;28;20076;-78
2021/08/24 07:24:34;;;;;;;25.80;23.40;;;;;;;26.93;100.00;101037.03;5004867;28;20053;-77
2021/08/24 07:27:00;;;;;;;25.17;22.63;;;;;;;26.71;99.38;101037.00;5006966;28;20064;-78
2021/08/24 07:29:27;;;;;;;23.90;21.90;;;;;;;27.29;96.26;101041.63;5005556;28;20403;-78
2021/08/24 07:31:54;;;;;;;24.85;22.63;;;;;;;27.19;97.06;101031.00;5010615;28;20050;-78
2021/08/24 07:34:21;;;;;;;26.00;23.88;;;;;;;27.20;100.00;101029.06;5007793;28;20065;-78
2021/08/24 07:36:47;;;;;;;26.38;24.20;;;;;;;27.67;93.23;101021.31;5010110;28;20057;-78
2021/08/24 07:39:14;;;;;;;27.30;25.15;;;;;;;27.95;92.67;101027.41;5002233;28;20050;-77
2021/08/24 07:41:42;;;;;;;26.00;23.70;;;;;;;28.19;85.95;101027.81;5000656;28;20054;-78
2021/08/24 07:44:09;;;;;;;24.58;22.38;;;;;;;27.86;78.78;101024.66;5001708;28;20477;-77
2021/08/24 07:46:36;;;;;;;24.13;22.05;;;;;;;27.91;85.65;101026.44;5003674;28;20050;-78
2021/08/24 07:49:03;;;;;;;24.40;22.20;;;;;;;28.12;71.77;101026.69;5012707;28;20478;-78
2021/08/24 07:51:30;;;;;;;24.52;22.25;;;;;;;28.11;76.76;101025.03;5005737;28;20046;-78
2021/08/24 07:53:59;;;;;;;23.27;21.38;;;;;;;28.05;80.85;101022.47;5007059;28;20045;-78
2021/08/24 07:56:27;;;;;;;22.95;21.05;;;;;;;28.17;61.92;101023.78;5006450;28;20167;-78
2021/08/24 07:58:55;;;;;;;23.88;21.95;;;;;;;28.20;61.22;101018.50;5002464;28;20046;-78
2021/08/24 08:01:21;;;;;;;24.23;22.25;;;;;;;28.41;62.36;101016.00;5004964;28;20054;-79
2021/08/24 08:03:48;;;;;;;24.65;22.20;;;;;;;28.74;56.10;101021.00;5010405;28;20049;-78
2021/08/24 08:06:15;;;;;;;24.80;22.70;;;;;;;28.51;63.45;101021.16;5010785;28;20115;-78
2021/08/24 08:08:42;;;;;;;24.80;22.83;;;;;;;28.71;57.31;101010.72;4998417;28;20494;-78
2021/08/24 08:11:08;;;;;;;24.25;22.02;;;;;;;28.69;53.97;101013.78;5003520;28;20058;-78
2021/08/24 08:13:35;;;;;;;24.35;22.35;;;;;;;28.91;51.23;101010.06;5002066;28;20042;-78
2021/08/24 08:16:03;;;;;;;24.15;22.10;;;;;;;28.54;63.52;101004.13;5008115;28;20053;-78
2021/08/24 08:18:30;;;;;;;23.20;21.33;;;;;;;28.86;54.17;101006.69;5008343;28;20050;-78
2021/08/24 08:20:57;;;;;;;23.88;21.80;;;;;;;28.71;47.83;101010.72;5003528;28;20454;-78
2021/08/24 08:23:24;;;;;;;23.13;21.13;;;;;;;29.07;50.00;101002.19;5002279;28;20052;-79
2021/08/24 08:25:51;;;;;;;23.17;20.90;;;;;;;29.35;47.92;101002.66;5006089;28;20204;-78
2021/08/24 08:28:18;;;;;;;21.83;20.13;;;;;;;28.52;61.07;101005.56;5000479;28;21330;-79
2021/08/24 08:30:47;;;;;;;23.90;21.92;;;;;;;29.14;48.78;101001.69;5003024;28;20050;-78
2021/08/24 08:33:16;;;;;;;24.92;22.85;;;;;;;29.49;46.81;100996.16;5012067;28;20050;-78
2021/08/24 08:35:43;;;;;;;23.95;21.70;;;;;;;29.83;49.29;100993.28;5004856;28;20058;-78
2021/08/24 08:38:10;;;;;;;23.60;20.92;;;;;;;29.59;53.15;101002.09;4997441;28;20050;-78
2021/08/24 08:40:45;;;;;;;23.25;21.17;;;;;;;29.89;47.54;100991.97;5010776;28;20045;-77
2021/08/24 08:43:22;;;;;;;23.45;21.23;;;;;;;29.74;46.29;100986.25;5006011;28;20038;-77
2021/08/24 08:45:51;;;;;;;22.88;20.63;;;;;;;29.65;44.91;100984.38;5007696;28;20116;-78
2021/08/24 08:48:33;;;;;;;23.30;21.20;;;;;;;29.44;47.29;100984.28;5010940;28;20046;-79
2021/08/24 08:51:13;;;;;;;23.23;21.00;;;;;;;29.52;47.32;100987.28;5005133;28;20104;-77
2021/08/24 08:53:49;;;;;;;23.92;21.73;;;;;;;29.02;57.82;100988.72;5005611;28;20080;-78
2021/08/24 08:56:22;;;;;;;24.23;22.17;;;;;;;29.90;51.85;100974.44;5008549;28;20522;-78
2021/08/24 08:58:57;;;;;;;25.20;22.77;;;;;;;30.53;46.54;100970.97;5011512;28;20057;-78
2021/08/24 09:01:30;;;;;;;24.00;22.00;;;;;;;30.31;45.42;100977.59;5013175;28;20092;-78
2021/08/24 09:04:11;;;;;;;24.05;21.95;;;;;;;30.60;45.77;100978.69;5015328;28;20379;-77
2021/08/24 09:06:38;;;;;;;23.13;21.30;;;;;;;30.32;47.35;100976.47;5009647;28;20046;-78
2021/08/24 09:09:06;;;;;;;22.60;20.70;;;;;;;30.33;44.56;100975.34;5011888;28;20107;-78
2021/08/24 09:11:38;;;;;;;22.30;20.40;;;;;;;30.16;45.50;100969.94;5013215;28;20042;-77
2021/08/24 09:14:13;;;;;;;27.02;24.92;;;;;;;30.89;42.88;100961.34;5005931;28;20084;-77
2021/08/24 09:16:47;;;;;;;24.08;21.73;;;;;;;30.03;48.88;100972.59;5013327;28;20042;-77
2021/08/24 09:19:21;;;;;;;24.17;22.17;;;;;;;30.73;48.74;100955.66;5014379;28;20046;-76
2021/08/24 09:21:48;;;;;;;24.25;22.08;;;;;;;30.63;45.26;100959.63;5014285;28;20050;-78
2021/08/24 09:24:19;;;;;;;24.40;22.30;;;;;;;31.31;39.62;100953.78;5013627;28;20383;-78
2021/08/24 09:26:58;;;;;;;27.10;25.00;;;;;;;31.55;41.09;100949.50;5010305;28;20046;-78
2021/08/24 09:29:28;;;;;;;28.55;26.15;;;;;;;31.43;39.07;100947.53;5009120;28;20050;-78
2021/08/24 09:31:55;;;;;;;28.38;26.17;;;;;;;31.54;42.60;100948.69;5005473;28;20457;-78
2021/08/24 09:34:28;;;;;;;27.60;25.40;;;;;;;31.03;43.00;100948.94;5013550;28;20061;-78
2021/08/24 09:36:55;;;;;;;26.13;23.95;;;;;;;31.56;40.05;100945.59;5004540;28;20081;-78
2021/08/24 09:39:51;;;;;;;25.80;23.60;;;;;;;31.55;39.50;100944.00;5007959;28;20053;-78
2021/08/24 09:42:27;;;;;;;28.13;25.75;;;;;;;31.76;38.57;100941.94;5008652;28;20050;-78
2021/08/24 09:44:55;;;;;;;29.55;26.60;;;;;;;32.01;37.21;100934.50;5007615;28;20057;-77
2021/08/24 09:47:23;;;;;;;29.05;26.52;;;;;;;31.66;37.67;100934.97;5002211;28;20140;-78
2021/08/24 09:49:58;;;;;;;29.52;26.98;;;;;;;32.19;38.66;100939.75;5010961;28;20060;-78
2021/08/24 09:52:28;;;;;;;29.30;26.90;;;;;;;32.15;36.78;100928.66;5010481;28;20566;-78
2021/08/24 09:55:00;;;;;;;28.55;26.27;;;;;;;32.07;37.17;100924.88;5015887;28;20427;-78
2021/08/24 09:57:30;;;;;;;29.60;26.92;;;;;;;32.04;36.15;100922.03;5006678;28;20045;-78
2021/08/24 10:00:01;;;;;;;27.52;25.02;;;;;;;31.94;36.44;100923.31;5006095;28;20109;-78
2021/08/24 10:02:38;;;;;;;26.60;24.20;;;;;;;32.12;38.01;100919.16;5011804;28;20050;-78
2021/08/24 10:05:09;;;;;;;26.20;23.80;;;;;;;32.15;39.88;100914.91;5012436;28;20050;-78
2021/08/24 10:07:39;;;;;;;23.83;21.67;;;;;;;31.00;44.51;100915.91;5013255;28;20049;-77
2021/08/24 10:10:09;;;;;;;27.13;24.95;;;;;;;32.06;39.54;100909.56;5007248;28;20046;-78
2021/08/24 10:12:38;;;;;;;27.60;25.50;;;;;;;31.34;44.08;100913.91;5005476;28;20065;-78
2021/08/24 10:15:24;;;;;;;28.13;25.92;;;;;;;32.42;37.45;100901.56;5007307;28;20050;-78
2021/08/24 10:17:59;;;;;;;28.85;26.33;;;;;;;32.28;36.20;100910.97;5003883;28;20051;-79
2021/08/24 10:20:32;;;;;;;29.08;26.75;;;;;;;31.60;42.37;100900.66;4999223;28;20057;-79
2021/08/24 10:22:59;;;;;;;29.05;26.80;;;;;;;32.50;36.59;100901.44;5006501;28;20064;-79
2021/08/24 10:25:31;;;;;;;28.95;26.65;;;;;;;31.94;39.73;100902.13;5004180;28;20415;-79
2021/08/24 10:28:01;;;;;;;28.77;26.57;;;;;;;32.00;41.63;100899.16;5006090;28;20054;-79
2021/08/24 10:30:42;;;;;;;29.00;26.55;;;;;;;32.91;38.43;100899.38;5003313;28;20073;-79
2021/08/24 10:33:19;;;;;;;28.42;26.08;;;;;;;32.67;38.50;100894.00;5014371;28;20077;-79
2021/08/24 10:35:54;;;;;;;26.60;24.60;;;;;;;32.97;35.40;100899.91;5014313;28;20146;-79
2021/08/24 10:38:38;;;;;;;27.00;24.90;;;;;;;32.69;37.55;100898.00;5010148;28;20153;-78
2021/08/24 10:41:19;;;;;;;26.67;24.55;;;;;;;31.57;41.77;100889.59;5016117;28;20045;-78
2021/08/24 10:43:52;;;;;;;27.67;25.58;;;;;;;32.43;34.44;100892.94;5010982;28;20115;-78
2021/08/24 10:46:20;;;;;;;28.25;25.90;;;;;;;32.72;33.42;100891.03;5011630;28;20471;-78
2021/08/24 10:48:48;;;;;;;27.17;25.10;;;;;;;32.62;32.96;100895.09;5012243;28;20038;-79
2021/08/24 10:51:35;;;;;;;39.38;26.73;;;;;;;33.50;33.04;100881.22;5003383;28;20125;-79
2021/08/24 10:54:14;;;;;;;27.50;25.45;;;;;;;32.66;35.34;100889.69;5004317;28;20511;-78
2021/08/24 10:56:48;;;;;;;28.50;26.40;;;;;;;33.77;34.14;100876.75;5007113;28;20053;-79
2021/08/24 10:59:29;;;;;;;26.08;24.23;;;;;;;33.23;35.76;100878.22;5005208;28;20057;-78
2021/08/24 11:02:02;;;;;;;25.13;22.95;;;;;;;33.14;36.75;100877.59;5000479;28;20050;-79
2021/08/24 11:04:57;;;;;;;24.80;22.85;;;;;;;33.41;37.43;100870.38;5008766;28;20132;-78
2021/08/24 11:07:40;;;;;;;26.38;24.17;;;;;;;33.63;32.99;100876.41;4995001;28;20128;-78
2021/08/24 11:10:18;;;;;;;28.08;25.50;;;;;;;33.66;31.51;100875.69;5010629;28;20108;-78
2021/08/24 11:13:03;;;;;;;28.17;25.80;;;;;;;32.91;33.57;100877.38;5013551;28;20111;-79
2021/08/24 11:15:41;;;;;;;27.27;25.08;;;;;;;32.92;33.27;100867.97;5008864;28;20057;-79
2021/08/24 11:18:17;;;;;;;27.25;25.25;;;;;;;33.38;32.36;100862.03;5011272;28;20125;-78
2021/08/24 11:20:49;;;;;;;26.70;24.70;;;;;;;33.40;32.90;100863.25;5010882;28;20053;-78